Time;durP1;ratioP1;P1;durP2;ratioP2;P2;SDS_P1;SDS_P2;PMS_P1;PMS_P2;Temp;Humidity;BMP_temperature;BMP_pressure;BME280_temperature;BME280_humidity;BME280_pressure;Samples;Min_cycle;Max_cycle;Signal;HPM_P1;HPM_P2
2022/02/27 00:00:31;;;;;;;23.35;9.98;;;;;;;;;;5038351;28;20028;-75
2022/02/27 00:02:56;;;;;;;27.12;10.12;;;;;;;;;;5038112;28;20025;-76
2022/02/27 00:05:22;;;;;;;21.20;9.23;;;;;;;;;;5038745;28;20071;-76
2022/02/27 00:07:47;;;;;;;23.95;9.57;;;;;;;;;;5038616;28;20021;-76
2022/02/27 00:10:12;;;;;;;19.20;9.25;;;;;;;;;;5038812;28;20068;-76
2022/02/27 00:12:37;;;;;;;24.50;9.52;;;;;;;;;;5038116;28;20136;-76
2022/02/27 00:15:04;;;;;;;23.00;9.43;;;;;;;;;;5038698;28;20029;-76
2022/02/27 00:17:29;;;;;;;25.63;9.50;;;;;;;;;;5038380;28;20100;-76
2022/02/27 00:19:54;;;;;;;20.25;9.50;;;;;;;;;;5034794;28;20056;-76
2022/02/27 00:22:20;;;;;;;25.40;9.27;;;;;;;;;;5034363;28;20021;-76
2022/02/27 00:24:45;;;;;;;18.08;8.75;;;;;;;;;;5035822;28;20040;-76
2022/02/27 00:27:10;;;;;;;24.63;8.90;;;;;;;;;;5036550;28;20403;-76
2022/02/27 00:29:35;;;;;;;24.00;8.73;;;;;;;;;;5035760;28;20045;-76
2022/02/27 00:32:00;;;;;;;23.65;7.90;;;;;;;;;;5035584;28;20022;-76
2022/02/27 00:34:26;;;;;;;26.10;8.10;;;;;;;;;;5035376;28;20075;-76
2022/02/27 00:36:52;;;;;;;22.67;7.78;;;;;;;;;;5035434;28;20017;-76
2022/02/27 00:39:18;;;;;;;23.67;8.13;;;;;;;;;;5035285;28;20495;-75
2022/02/27 00:41:43;;;;;;;23.80;7.75;;;;;;;;;;5035009;28;20036;-75
2022/02/27 00:44:08;;;;;;;17.48;7.03;;;;;;;;;;5035146;28;20552;-75
2022/02/27 00:46:34;;;;;;;19.63;7.43;;;;;;;;;;5035278;28;20021;-75
2022/02/27 00:48:59;;;;;;;18.92;7.00;;;;;;;;;;5035368;28;20017;-75
2022/02/27 00:51:24;;;;;;;17.55;7.20;;;;;;;;;;5034199;28;20420;-75
2022/02/27 00:53:49;;;;;;;19.00;6.78;;;;;;;;;;5035451;28;20566;-76
2022/02/27 00:56:14;;;;;;;23.12;7.58;;;;;;;;;;5036732;28;20021;-76
2022/02/27 00:58:40;;;;;;;20.77;6.78;;;;;;;;;;5035848;28;20032;-76
2022/02/27 01:01:05;;;;;;;24.40;7.40;;;;;;;;;;5034708;28;20026;-76
2022/02/27 01:03:30;;;;;;;14.52;6.45;;;;;;;;;;5035452;28;20503;-75
2022/02/27 01:05:55;;;;;;;12.13;6.05;;;;;;;;;;5038482;28;20056;-75
2022/02/27 01:08:20;;;;;;;12.80;6.40;;;;;;;;;;5037589;28;20393;-76
2022/02/27 01:10:45;;;;;;;14.52;5.95;;;;;;;;;;5035641;28;20056;-75
2022/02/27 01:13:11;;;;;;;19.90;7.03;;;;;;;;;;5034831;28;20018;-75
2022/02/27 01:15:36;;;;;;;18.60;7.40;;;;;;;;;;5034358;28;20037;-76
2022/02/27 01:18:01;;;;;;;15.32;6.28;;;;;;;;;;5036176;28;20026;-76
2022/02/27 01:20:26;;;;;;;15.75;5.47;;;;;;;;;;5034568;28;20088;-76
2022/02/27 01:22:51;;;;;;;15.77;5.82;;;;;;;;;;5034367;28;20021;-76
2022/02/27 01:25:17;;;;;;;17.30;6.43;;;;;;;;;;5036198;28;20017;-76
2022/02/27 01:27:42;;;;;;;16.73;6.57;;;;;;;;;;5035353;28;20392;-76
2022/02/27 01:30:08;;;;;;;20.92;7.20;;;;;;;;;;5035319;28;20029;-75
2022/02/27 01:32:33;;;;;;;18.17;6.38;;;;;;;;;;5035344;28;20021;-76
2022/02/27 01:34:58;;;;;;;19.77;6.93;;;;;;;;;;5034096;28;20017;-76
2022/02/27 01:37:23;;;;;;;18.63;6.32;;;;;;;;;;5035897;28;20029;-76
2022/02/27 01:39:49;;;;;;;19.38;7.43;;;;;;;;;;5037414;28;20085;-75
2022/02/27 01:42:15;;;;;;;17.95;6.57;;;;;;;;;;5035465;28;20021;-76
2022/02/27 01:44:41;;;;;;;18.83;6.60;;;;;;;;;;5034815;28;20087;-76
2022/02/27 01:47:08;;;;;;;15.32;6.63;;;;;;;;;;5034779;28;20061;-76
2022/02/27 01:49:33;;;;;;;13.93;6.25;;;;;;;;;;5037562;28;20013;-75
2022/02/27 01:51:59;;;;;;;21.30;6.65;;;;;;;;;;5036573;28;20431;-76
2022/02/27 01:54:24;;;;;;;19.10;6.07;;;;;;;;;;5037317;28;20017;-75
2022/02/27 01:56:50;;;;;;;20.65;6.47;;;;;;;;;;5035082;28;20013;-75
2022/02/27 01:59:15;;;;;;;20.00;6.57;;;;;;;;;;5036850;28;20047;-75
2022/02/27 02:01:41;;;;;;;19.13;6.90;;;;;;;;;;5034828;28;20026;-75
2022/02/27 02:04:06;;;;;;;18.35;6.78;;;;;;;;;;5035964;28;20501;-75
2022/02/27 02:06:31;;;;;;;19.85;6.90;;;;;;;;;;5036083;28;20018;-76
2022/02/27 02:08:56;;;;;;;13.32;6.78;;;;;;;;;;5035190;28;20477;-76
2022/02/27 02:11:21;;;;;;;15.30;7.25;;;;;;;;;;5035036;28;20013;-76
2022/02/27 02:13:47;;;;;;;16.67;6.18;;;;;;;;;;5035359;28;20384;-76
2022/02/27 02:16:12;;;;;;;17.20;6.20;;;;;;;;;;5035468;28;20029;-76
2022/02/27 02:18:38;;;;;;;15.04;6.52;;;;;;;;;;5037281;28;20021;-75
2022/02/27 02:21:04;;;;;;;16.52;7.07;;;;;;;;;;5038340;28;20079;-76
2022/02/27 02:23:29;;;;;;;20.50;7.82;;;;;;;;;;5039481;28;20488;-76
2022/02/27 02:25:54;;;;;;;19.20;7.18;;;;;;;;;;5037677;28;20039;-76
2022/02/27 02:28:21;;;;;;;21.83;7.90;;;;;;;;;;5044006;28;20021;-75
2022/02/27 02:30:46;;;;;;;18.38;6.45;;;;;;;;;;5053588;28;20037;-75
2022/02/27 02:33:11;;;;;;;17.17;7.15;;;;;;;;;;5052698;28;20465;-76
2022/02/27 02:35:36;;;;;;;15.88;7.03;;;;;;;;;;5053596;28;20026;-76
2022/02/27 02:38:01;;;;;;;13.48;6.80;;;;;;;;;;5052660;28;20025;-76
2022/02/27 02:40:27;;;;;;;19.23;6.78;;;;;;;;;;5053690;28;20025;-76
2022/02/27 02:42:52;;;;;;;19.02;6.78;;;;;;;;;;5047772;28;20036;-76
2022/02/27 02:45:17;;;;;;;18.98;6.80;;;;;;;;;;5043183;28;20005;-76
2022/02/27 02:47:44;;;;;;;19.85;6.97;;;;;;;;;;5050766;28;20021;-75
2022/02/27 02:50:10;;;;;;;14.30;6.32;;;;;;;;;;5053770;28;20481;-75
2022/02/27 02:52:35;;;;;;;20.02;7.15;;;;;;;;;;5052182;28;20018;-76
2022/02/27 02:55:02;;;;;;;17.98;6.95;;;;;;;;;;5052048;28;20143;-75
2022/02/27 02:57:27;;;;;;;13.55;6.45;;;;;;;;;;5052482;28;20021;-75
2022/02/27 02:59:52;;;;;;;16.48;6.55;;;;;;;;;;5044606;28;20027;-76
2022/02/27 03:02:17;;;;;;;15.82;6.68;;;;;;;;;;5049036;28;20041;-75
2022/02/27 03:04:42;;;;;;;16.10;6.68;;;;;;;;;;5046047;28;20018;-76
2022/02/27 03:07:08;;;;;;;16.15;6.50;;;;;;;;;;5042225;28;20105;-76
2022/02/27 03:09:35;;;;;;;18.35;6.10;;;;;;;;;;5041108;28;20060;-76
2022/02/27 03:12:00;;;;;;;14.10;6.93;;;;;;;;;;5042438;28;20022;-76
2022/02/27 03:14:25;;;;;;;18.80;6.93;;;;;;;;;;5042096;28;20496;-76
2022/02/27 03:16:51;;;;;;;15.25;6.30;;;;;;;;;;5041225;28;20082;-75
2022/02/27 03:19:18;;;;;;;16.33;6.78;;;;;;;;;;5035879;28;20092;-75
2022/02/27 03:21:44;;;;;;;18.70;7.27;;;;;;;;;;5033544;28;20036;-76
2022/02/27 03:24:09;;;;;;;16.30;6.10;;;;;;;;;;5033589;28;20832;-75
2022/02/27 03:26:34;;;;;;;24.65;7.35;;;;;;;;;;5033058;28;20018;-76
2022/02/27 03:28:59;;;;;;;14.80;6.57;;;;;;;;;;5033334;28;20016;-76
2022/02/27 03:31:24;;;;;;;20.40;6.32;;;;;;;;;;5033623;28;20014;-76
2022/02/27 03:33:50;;;;;;;16.83;6.70;;;;;;;;;;5032805;28;20473;-76
2022/02/27 03:36:15;;;;;;;14.93;6.80;;;;;;;;;;5032977;28;20049;-76
2022/02/27 03:38:41;;;;;;;18.90;7.18;;;;;;;;;;5032244;28;20108;-76
2022/02/27 03:41:06;;;;;;;15.40;6.40;;;;;;;;;;5033654;28;20026;-75
2022/02/27 03:43:31;;;;;;;16.10;6.45;;;;;;;;;;5032984;28;20469;-76
2022/02/27 03:45:56;;;;;;;16.70;6.90;;;;;;;;;;5032123;28;20024;-74
2022/02/27 03:48:22;;;;;;;14.77;6.13;;;;;;;;;;5032451;28;20014;-75
2022/02/27 03:50:47;;;;;;;14.65;6.13;;;;;;;;;;5032251;28;20009;-76
2022/02/27 03:53:12;;;;;;;15.70;6.88;;;;;;;;;;5032280;28;20017;-75
2022/02/27 03:55:37;;;;;;;16.95;5.97;;;;;;;;;;5035580;28;20104;-76
2022/02/27 03:58:03;;;;;;;15.07;7.05;;;;;;;;;;5036734;28;20108;-74
2022/02/27 04:00:28;;;;;;;19.42;6.60;;;;;;;;;;5036625;28;20050;-75
2022/02/27 04:02:53;;;;;;;20.05;7.60;;;;;;;;;;5034797;28;20026;-76
2022/02/27 04:05:19;;;;;;;22.15;7.13;;;;;;;;;;5036060;28;20025;-76
2022/02/27 04:07:44;;;;;;;19.30;6.97;;;;;;;;;;5034940;28;20022;-76
2022/02/27 04:10:10;;;;;;;15.65;6.97;;;;;;;;;;5035695;28;20377;-76
2022/02/27 04:12:35;;;;;;;16.17;7.35;;;;;;;;;;5035517;28;20024;-76
2022/02/27 04:15:00;;;;;;;22.85;7.60;;;;;;;;;;5034685;28;20025;-76
2022/02/27 04:17:25;;;;;;;14.43;7.00;;;;;;;;;;5035902;28;20022;-76
2022/02/27 04:19:51;;;;;;;16.08;6.97;;;;;;;;;;5035756;28;20025;-76
2022/02/27 04:22:16;;;;;;;19.92;6.50;;;;;;;;;;5035341;28;20484;-76
2022/02/27 04:24:41;;;;;;;17.98;6.63;;;;;;;;;;5034254;28;20023;-76
2022/02/27 04:27:06;;;;;;;17.55;6.65;;;;;;;;;;5035491;28;20017;-77
2022/02/27 04:29:31;;;;;;;23.05;7.63;;;;;;;;;;5034868;28;20021;-76
2022/02/27 04:31:57;;;;;;;17.60;6.88;;;;;;;;;;5034972;28;20041;-76
2022/02/27 04:34:22;;;;;;;15.32;6.18;;;;;;;;;;5035571;28;20491;-76
2022/02/27 04:36:47;;;;;;;18.23;7.10;;;;;;;;;;5035394;28;20022;-76
2022/02/27 04:39:12;;;;;;;20.38;7.45;;;;;;;;;;5034237;28;20018;-76
2022/02/27 04:41:40;;;;;;;18.77;7.10;;;;;;;;;;5034005;28;20469;-76
2022/02/27 04:44:05;;;;;;;19.08;6.55;;;;;;;;;;5033596;28;20108;-76
2022/02/27 04:46:30;;;;;;;13.98;6.95;;;;;;;;;;5034719;28;20559;-76
2022/02/27 04:48:55;;;;;;;12.85;6.40;;;;;;;;;;5036242;28;20021;-76
2022/02/27 04:51:21;;;;;;;16.33;7.05;;;;;;;;;;5035921;28;20530;-76
2022/02/27 04:53:47;;;;;;;17.80;7.18;;;;;;;;;;5037794;28;20038;-76
2022/02/27 04:56:12;;;;;;;11.95;5.70;;;;;;;;;;5037700;28;20033;-75
2022/02/27 04:58:37;;;;;;;16.60;6.60;;;;;;;;;;5036621;28;20022;-76
2022/02/27 05:01:02;;;;;;;14.85;6.78;;;;;;;;;;5037911;28;20035;-74
2022/02/27 05:03:27;;;;;;;16.52;6.68;;;;;;;;;;5037094;28;20024;-76
2022/02/27 05:05:53;;;;;;;16.80;7.47;;;;;;;;;;5036606;28;20385;-75
2022/02/27 05:08:18;;;;;;;14.73;6.22;;;;;;;;;;5034987;28;20026;-76
2022/02/27 05:10:43;;;;;;;14.00;6.75;;;;;;;;;;5035461;28;20388;-74
2022/02/27 05:13:08;;;;;;;17.02;7.57;;;;;;;;;;5033764;28;20033;-76
2022/02/27 05:15:33;;;;;;;15.00;7.55;;;;;;;;;;5034682;28;20028;-76
2022/02/27 05:17:59;;;;;;;22.70;7.32;;;;;;;;;;5035088;28;20029;-76
2022/02/27 05:20:24;;;;;;;16.20;7.35;;;;;;;;;;5034849;28;20025;-74
2022/02/27 05:22:49;;;;;;;21.70;7.50;;;;;;;;;;5035490;28;20072;-74
2022/02/27 05:25:18;;;;;;;14.00;6.65;;;;;;;;;;5035024;28;20018;-75
2022/02/27 05:27:43;;;;;;;16.10;7.72;;;;;;;;;;5035185;28;20017;-76
2022/02/27 05:30:09;;;;;;;17.70;6.75;;;;;;;;;;5033864;28;20040;-75
2022/02/27 05:32:34;;;;;;;18.75;8.48;;;;;;;;;;5046600;23;20052;-78
2022/02/27 05:34:59;;;;;;;17.38;7.32;;;;;;;;;;5034795;28;20025;-79
2022/02/27 05:37:25;;;;;;;18.08;8.35;;;;;;;;;;5033601;28;20021;-79
2022/02/27 05:39:50;;;;;;;17.83;6.85;;;;;;;;;;5033693;28;20548;-79
2022/02/27 05:42:15;;;;;;;19.17;7.28;;;;;;;;;;5032745;28;20055;-79
2022/02/27 05:44:40;;;;;;;17.80;8.50;;;;;;;;;;5033496;28;20025;-78
2022/02/27 05:47:05;;;;;;;13.27;7.68;;;;;;;;;;5035294;28;20092;-78
2022/02/27 05:49:31;;;;;;;18.67;7.43;;;;;;;;;;5033015;28;20052;-79
2022/02/27 05:51:56;;;;;;;12.93;7.47;;;;;;;;;;5033683;28;20108;-77
2022/02/27 05:54:21;;;;;;;19.02;7.75;;;;;;;;;;5032982;28;20029;-79
2022/02/27 05:56:47;;;;;;;17.58;8.13;;;;;;;;;;5034304;28;20081;-79
2022/02/27 05:59:12;;;;;;;22.80;8.75;;;;;;;;;;5034847;28;20017;-79
2022/02/27 06:01:37;;;;;;;24.20;8.27;;;;;;;;;;5034277;28;20072;-78
2022/02/27 06:04:02;;;;;;;24.55;8.60;;;;;;;;;;5034626;28;20085;-78
2022/02/27 06:06:27;;;;;;;21.63;8.80;;;;;;;;;;5035297;28;20022;-78
2022/02/27 06:08:52;;;;;;;25.00;9.23;;;;;;;;;;5034777;28;20453;-78
2022/02/27 06:11:18;;;;;;;21.65;9.02;;;;;;;;;;5034702;28;20487;-78
2022/02/27 06:13:43;;;;;;;22.50;9.15;;;;;;;;;;5034724;28;20473;-78
2022/02/27 06:16:08;;;;;;;19.98;8.15;;;;;;;;;;5034259;28;20211;-78
2022/02/27 06:18:33;;;;;;;26.98;8.98;;;;;;;;;;5034562;28;20017;-79
2022/02/27 06:20:58;;;;;;;24.52;9.38;;;;;;;;;;5034538;28;20603;-79
2022/02/27 06:23:24;;;;;;;23.10;10.07;;;;;;;;;;5031540;28;20036;-79
2022/02/27 06:25:49;;;;;;;27.08;10.15;;;;;;;;;;5033628;28;20104;-78
2022/02/27 06:28:14;;;;;;;24.10;8.70;;;;;;;;;;5034539;28;20397;-78
2022/02/27 06:30:39;;;;;;;24.35;9.18;;;;;;;;;;5032523;28;20500;-78
2022/02/27 06:33:05;;;;;;;24.77;9.10;;;;;;;;;;5032877;28;20037;-79
2022/02/27 06:35:30;;;;;;;20.33;8.43;;;;;;;;;;5032882;28;20026;-79
2022/02/27 06:37:55;;;;;;;16.70;8.52;;;;;;;;;;5032854;28;20021;-79
2022/02/27 06:40:21;;;;;;;18.10;8.10;;;;;;;;;;5033185;28;20561;-79
2022/02/27 06:42:46;;;;;;;19.85;8.68;;;;;;;;;;5032569;28;20079;-79
2022/02/27 06:45:12;;;;;;;20.15;8.52;;;;;;;;;;5032638;28;20022;-79
2022/02/27 06:47:37;;;;;;;20.73;8.95;;;;;;;;;;5032930;28;20017;-79
2022/02/27 06:50:04;;;;;;;17.63;8.05;;;;;;;;;;5031399;28;20022;-80
2022/02/27 06:52:29;;;;;;;16.55;8.27;;;;;;;;;;5032176;28;20025;-79
2022/02/27 06:54:55;;;;;;;18.10;8.52;;;;;;;;;;5031353;28;20044;-79
2022/02/27 06:57:20;;;;;;;17.83;8.98;;;;;;;;;;5033023;28;20065;-78
2022/02/27 06:59:45;;;;;;;18.08;9.05;;;;;;;;;;5032777;28;20033;-79
2022/02/27 07:02:11;;;;;;;19.13;8.02;;;;;;;;;;5031312;28;20080;-79
2022/02/27 07:04:36;;;;;;;14.65;7.78;;;;;;;;;;5032922;28;20028;-78
2022/02/27 07:07:01;;;;;;;18.92;8.27;;;;;;;;;;5033102;28;20539;-78
2022/02/27 07:09:26;;;;;;;16.08;8.85;;;;;;;;;;5032953;28;20025;-78
2022/02/27 07:11:53;;;;;;;17.40;7.82;;;;;;;;;;5032578;28;20029;-79
2022/02/27 07:14:18;;;;;;;19.92;8.07;;;;;;;;;;5033808;28;20022;-79
2022/02/27 07:16:44;;;;;;;14.25;7.55;;;;;;;;;;5033384;28;20029;-79
2022/02/27 07:19:09;;;;;;;15.30;8.00;;;;;;;;;;5033890;28;20044;-80
2022/02/27 07:21:35;;;;;;;13.85;6.97;;;;;;;;;;5033557;28;20030;-79
2022/02/27 07:24:00;;;;;;;17.60;8.30;;;;;;;;;;5033959;28;20026;-79
2022/02/27 07:26:25;;;;;;;16.30;7.85;;;;;;;;;;5033588;28;20457;-78
2022/02/27 07:28:52;;;;;;;17.30;7.90;;;;;;;;;;5037263;28;20096;-79
2022/02/27 07:31:17;;;;;;;17.08;7.63;;;;;;;;;;5036457;28;20018;-78
2022/02/27 07:33:42;;;;;;;15.73;7.97;;;;;;;;;;5036363;28;20032;-79
2022/02/27 07:36:07;;;;;;;16.70;8.63;;;;;;;;;;5036381;28;20110;-78
2022/02/27 07:38:32;;;;;;;14.07;7.68;;;;;;;;;;5036528;28;20028;-79
2022/02/27 07:40:58;;;;;;;16.15;8.45;;;;;;;;;;5035206;28;20432;-79
2022/02/27 07:43:23;;;;;;;16.85;8.20;;;;;;;;;;5036183;28;20021;-78
2022/02/27 07:45:49;;;;;;;18.90;9.70;;;;;;;;;;5036529;28;20486;-79
2022/02/27 07:48:14;;;;;;;18.48;8.52;;;;;;;;;;5036768;28;20021;-79
2022/02/27 07:50:39;;;;;;;15.02;8.10;;;;;;;;;;5036777;28;20100;-79
2022/02/27 07:53:05;;;;;;;15.52;8.60;;;;;;;;;;5036712;28;20074;-78
2022/02/27 07:55:30;;;;;;;20.80;9.10;;;;;;;;;;5036287;28;20075;-79
2022/02/27 07:57:55;;;;;;;16.50;9.13;;;;;;;;;;5036414;28;20104;-80
2022/02/27 08:00:20;;;;;;;16.27;8.38;;;;;;;;;;5036281;28;20134;-80
2022/02/27 08:02:46;;;;;;;17.00;7.47;;;;;;;;;;5035631;28;20024;-79
2022/02/27 08:05:11;;;;;;;17.67;7.53;;;;;;;;;;5036043;28;20028;-79
2022/02/27 08:07:36;;;;;;;15.13;7.85;;;;;;;;;;5036560;28;20010;-78
2022/02/27 08:10:01;;;;;;;16.20;8.73;;;;;;;;;;5036866;28;20516;-78
2022/02/27 08:12:27;;;;;;;19.83;8.88;;;;;;;;;;5036289;28;20432;-78
2022/02/27 08:14:52;;;;;;;15.98;7.95;;;;;;;;;;5036464;28;20047;-79
2022/02/27 08:17:18;;;;;;;15.85;8.90;;;;;;;;;;5036229;28;20022;-79
2022/02/27 08:19:44;;;;;;;23.25;10.52;;;;;;;;;;5036407;28;20071;-78
2022/02/27 08:22:09;;;;;;;16.10;8.23;;;;;;;;;;5035923;28;20030;-80
2022/02/27 08:24:35;;;;;;;17.20;8.57;;;;;;;;;;5036707;28;20063;-79
2022/02/27 08:27:00;;;;;;;20.08;8.82;;;;;;;;;;5036709;28;20017;-79
2022/02/27 08:29:25;;;;;;;17.45;8.45;;;;;;;;;;5037089;28;20029;-80
2022/02/27 08:31:50;;;;;;;19.98;8.23;;;;;;;;;;5036353;28;20026;-79
2022/02/27 08:34:15;;;;;;;18.40;9.07;;;;;;;;;;5036737;28;20067;-79
2022/02/27 08:36:41;;;;;;;23.35;9.30;;;;;;;;;;5036315;28;20366;-78
2022/02/27 08:39:06;;;;;;;18.73;9.18;;;;;;;;;;5036544;28;20024;-79
2022/02/27 08:41:31;;;;;;;26.52;11.05;;;;;;;;;;5034997;28;20366;-79
2022/02/27 08:43:57;;;;;;;23.55;10.30;;;;;;;;;;5034917;28;20049;-78
2022/02/27 08:46:22;;;;;;;16.10;8.60;;;;;;;;;;5035560;28;20048;-78
2022/02/27 08:48:47;;;;;;;22.52;9.77;;;;;;;;;;5033742;28;20017;-79
2022/02/27 08:51:13;;;;;;;21.42;10.02;;;;;;;;;;5035193;28;20017;-79
2022/02/27 08:53:38;;;;;;;22.60;9.38;;;;;;;;;;5034575;28;20544;-78
2022/02/27 08:56:03;;;;;;;19.75;10.27;;;;;;;;;;5034866;28;20025;-79
2022/02/27 08:58:28;;;;;;;27.20;11.65;;;;;;;;;;5033694;28;20072;-78
2022/02/27 09:00:54;;;;;;;27.08;11.50;;;;;;;;;;5034902;28;20018;-79
2022/02/27 09:03:24;;;;;;;23.40;10.25;;;;;;;;;;5036099;28;20080;-79
2022/02/27 09:05:49;;;;;;;21.90;10.57;;;;;;;;;;5035874;28;20476;-79
2022/02/27 09:08:15;;;;;;;19.98;10.18;;;;;;;;;;5034354;28;20021;-79
2022/02/27 09:10:40;;;;;;;23.42;9.55;;;;;;;;;;5034672;28;20542;-77
2022/02/27 09:13:05;;;;;;;21.00;9.57;;;;;;;;;;5032607;28;20029;-78
2022/02/27 09:15:30;;;;;;;24.17;11.15;;;;;;;;;;5034073;28;20056;-77
2022/02/27 09:17:56;;;;;;;20.77;10.40;;;;;;;;;;5034175;28;20029;-77
2022/02/27 09:20:21;;;;;;;24.10;10.77;;;;;;;;;;5033939;28;20021;-78
2022/02/27 09:22:46;;;;;;;18.52;9.30;;;;;;;;;;5033689;28;20025;-78
2022/02/27 09:25:11;;;;;;;17.85;9.65;;;;;;;;;;5032472;28;20435;-78
2022/02/27 09:27:36;;;;;;;17.73;8.38;;;;;;;;;;5033911;28;20487;-79
2022/02/27 09:30:02;;;;;;;17.98;9.18;;;;;;;;;;5033782;28;20010;-79
2022/02/27 09:32:27;;;;;;;17.67;8.80;;;;;;;;;;5032987;28;20040;-80
2022/02/27 09:34:52;;;;;;;19.15;9.57;;;;;;;;;;5033859;28;20054;-78
2022/02/27 09:37:17;;;;;;;20.55;9.73;;;;;;;;;;5033445;28;20026;-77
2022/02/27 09:39:43;;;;;;;19.42;9.25;;;;;;;;;;5033393;28;20033;-78
2022/02/27 09:42:08;;;;;;;17.25;9.90;;;;;;;;;;5032771;28;20021;-79
2022/02/27 09:44:40;;;;;;;22.27;10.00;;;;;;;;;;5036256;28;20489;-77
2022/02/27 09:47:15;;;;;;;21.05;9.13;;;;;;;;;;5034715;28;20052;-80
2022/02/27 09:49:42;;;;;;;17.00;9.13;;;;;;;;;;5033707;28;20169;-79
2022/02/27 09:52:07;;;;;;;16.67;8.95;;;;;;;;;;5032472;28;20017;-78
2022/02/27 09:54:33;;;;;;;15.90;8.63;;;;;;;;;;5032937;28;20476;-79
2022/02/27 09:56:58;;;;;;;15.13;8.25;;;;;;;;;;5032791;28;20392;-79
2022/02/27 09:59:24;;;;;;;17.17;8.68;;;;;;;;;;5033111;28;20040;-80
2022/02/27 10:01:59;;;;;;;17.08;8.20;;;;;;;;;;5032765;28;20079;-77
2022/02/27 10:04:25;;;;;;;17.08;8.25;;;;;;;;;;5033026;28;20021;-80
2022/02/27 10:06:50;;;;;;;11.55;6.65;;;;;;;;;;5031516;28;20362;-79
2022/02/27 10:09:24;;;;;;;13.95;7.20;;;;;;;;;;5032844;28;20026;-79
2022/02/27 10:11:50;;;;;;;11.95;6.22;;;;;;;;;;5032181;28;20019;-77
2022/02/27 10:14:27;;;;;;;14.52;7.38;;;;;;;;;;5032386;28;20025;-77
2022/02/27 10:17:05;;;;;;;14.02;7.28;;;;;;;;;;5032555;28;20021;-78
2022/02/27 10:19:34;;;;;;;14.35;7.07;;;;;;;;;;5032372;28;20562;-77
2022/02/27 10:21:59;;;;;;;;;;;;;;;;;;5032775;28;20034;-78
2022/02/27 10:24:24;;;;;;;11.45;6.25;;;;;;;;;;5032312;28;19909;-78
2022/02/27 10:26:51;;;;;;;14.67;6.90;;;;;;;;;;5032341;28;20032;-78
2022/02/27 10:29:17;;;;;;;13.77;6.68;;;;;;;;;;5032099;28;20376;-78
2022/02/27 10:31:44;;;;;;;14.55;6.78;;;;;;;;;;5030682;28;20018;-78
2022/02/27 10:34:13;;;;;;;13.88;6.30;;;;;;;;;;5032146;28;20704;-78
2022/02/27 10:36:49;;;;;;;13.98;6.88;;;;;;;;;;5032472;28;20029;-78
2022/02/27 10:39:24;;;;;;;13.00;7.15;;;;;;;;;;5031949;28;20020;-78
2022/02/27 10:41:50;;;;;;;12.48;6.80;;;;;;;;;;5031791;28;20538;-78
2022/02/27 10:44:21;;;;;;;15.10;7.83;;;;;;;;;;5032106;28;20021;-79
2022/02/27 10:46:46;;;;;;;11.63;6.18;;;;;;;;;;5031899;28;20240;-78
2022/02/27 10:49:11;;;;;;;10.27;5.43;;;;;;;;;;5031948;28;20088;-78
2022/02/27 10:51:36;;;;;;;12.93;5.87;;;;;;;;;;5031460;28;20100;-78
2022/02/27 10:54:02;;;;;;;11.93;5.70;;;;;;;;;;5031501;28;20018;-79
2022/02/27 10:56:32;;;;;;;8.90;5.10;;;;;;;;;;5031858;28;20251;-79
2022/02/27 10:58:57;;;;;;;7.18;4.82;;;;;;;;;;5031509;28;20086;-78
2022/02/27 11:01:24;;;;;;;9.45;5.80;;;;;;;;;;5031615;28;20480;-79
2022/02/27 11:03:51;;;;;;;8.77;5.00;;;;;;;;;;5030766;28;20056;-79
2022/02/27 11:06:17;;;;;;;10.00;5.28;;;;;;;;;;5031650;28;20033;-78
2022/02/27 11:08:42;;;;;;;10.50;4.75;;;;;;;;;;5031473;28;20009;-78
2022/02/27 11:11:08;;;;;;;8.68;5.22;;;;;;;;;;5031740;28;20118;-77
2022/02/27 11:13:33;;;;;;;11.02;5.65;;;;;;;;;;5029826;28;20507;-79
2022/02/27 11:15:58;;;;;;;9.48;4.80;;;;;;;;;;5031394;28;20064;-78
2022/02/27 11:18:23;;;;;;;10.40;6.10;;;;;;;;;;5031410;28;20100;-78
2022/02/27 11:20:49;;;;;;;8.67;5.37;;;;;;;;;;5031478;28;20399;-78
2022/02/27 11:23:14;;;;;;;11.60;6.05;;;;;;;;;;5030840;28;20271;-78
2022/02/27 11:25:40;;;;;;;7.80;5.10;;;;;;;;;;5031364;28;20048;-78
2022/02/27 11:28:07;;;;;;;10.80;5.18;;;;;;;;;;5029804;28;20385;-78
2022/02/27 11:30:33;;;;;;;10.68;5.22;;;;;;;;;;5031512;28;20057;-79
2022/02/27 11:33:05;;;;;;;8.93;5.35;;;;;;;;;;5030806;28;20040;-78
2022/02/27 11:35:38;;;;;;;10.25;5.72;;;;;;;;;;5031510;28;20021;-77
2022/02/27 11:38:05;;;;;;;8.80;5.50;;;;;;;;;;5030046;28;20029;-78
2022/02/27 11:40:38;;;;;;;9.90;5.40;;;;;;;;;;5031103;28;20030;-79
2022/02/27 11:43:04;;;;;;;12.02;5.00;;;;;;;;;;5030616;28;20018;-80
2022/02/27 11:45:32;;;;;;;13.20;7.25;;;;;;;;;;5031136;28;20070;-78
2022/02/27 11:47:57;;;;;;;;;;;;;;;;;;5031645;28;20025;-79
2022/02/27 11:50:24;;;;;;;10.45;5.75;;;;;;;;;;5030924;28;20299;-77
2022/02/27 11:52:50;;;;;;;11.05;5.80;;;;;;;;;;5030669;28;20032;-78
2022/02/27 11:55:35;;;;;;;11.63;5.82;;;;;;;;;;5031144;28;20030;-79
2022/02/27 11:58:00;;;;;;;8.90;5.05;;;;;;;;;;5031955;28;20029;-79
2022/02/27 12:00:36;;;;;;;12.73;5.33;;;;;;;;;;5031528;28;20032;-79
2022/02/27 12:03:01;;;;;;;8.63;5.30;;;;;;;;;;5030509;28;20275;-79
2022/02/27 12:05:41;;;;;;;10.50;5.33;;;;;;;;;;5030995;28;20017;-79
2022/02/27 12:08:07;;;;;;;8.50;5.18;;;;;;;;;;5030768;28;20246;-79
2022/02/27 12:10:34;;;;;;;9.55;5.53;;;;;;;;;;5030962;28;20025;-80
2022/02/27 12:13:00;;;;;;;12.05;5.63;;;;;;;;;;5030391;28;20033;-79
2022/02/27 12:15:36;;;;;;;12.13;5.60;;;;;;;;;;5033410;28;20055;-79
2022/02/27 12:18:07;;;;;;;10.57;5.88;;;;;;;;;;5033466;28;20022;-79
2022/02/27 12:20:50;;;;;;;11.93;5.57;;;;;;;;;;5035366;28;20064;-79
2022/02/27 12:23:27;;;;;;;11.55;5.20;;;;;;;;;;5034596;28;20380;-79
2022/02/27 12:25:53;;;;;;;9.93;5.28;;;;;;;;;;5034851;28;20025;-79
2022/02/27 12:28:37;;;;;;;9.57;5.57;;;;;;;;;;5035185;28;20021;-79
2022/02/27 12:31:02;;;;;;;10.93;5.00;;;;;;;;;;5035686;28;20021;-79
2022/02/27 12:33:27;;;;;;;13.57;4.93;;;;;;;;;;5035416;28;20079;-80
2022/02/27 12:35:53;;;;;;;12.53;5.53;;;;;;;;;;5034238;28;20033;-79
2022/02/27 12:38:24;;;;;;;10.83;5.70;;;;;;;;;;5034094;28;20045;-79
2022/02/27 12:40:57;;;;;;;9.75;5.05;;;;;;;;;;5032864;28;20316;-79
2022/02/27 12:43:22;;;;;;;10.48;5.38;;;;;;;;;;5034123;28;20116;-79
2022/02/27 12:45:47;;;;;;;9.70;4.97;;;;;;;;;;5036549;28;20384;-79
2022/02/27 12:48:14;;;;;;;11.53;5.00;;;;;;;;;;5036766;28;20049;-79
2022/02/27 12:50:47;;;;;;;9.40;4.50;;;;;;;;;;5043104;28;20250;-78
2022/02/27 12:53:15;;;;;;;10.07;4.85;;;;;;;;;;5040391;28;20098;-79
2022/02/27 12:55:40;;;;;;;14.23;6.65;;;;;;;;;;5046572;28;20476;-79
2022/02/27 12:58:06;;;;;;;12.93;5.80;;;;;;;;;;5050396;28;20036;-78
2022/02/27 13:00:41;;;;;;;11.02;5.82;;;;;;;;;;5049072;28;20033;-79
2022/02/27 13:03:10;;;;;;;11.05;5.45;;;;;;;;;;5045774;28;20043;-80
2022/02/27 13:05:36;;;;;;;12.15;5.47;;;;;;;;;;5049453;28;20080;-79
2022/02/27 13:08:05;;;;;;;10.05;5.05;;;;;;;;;;5048708;28;20022;-78
2022/02/27 13:10:30;;;;;;;17.30;8.38;;;;;;;;;;5046939;28;20029;-80
2022/02/27 13:12:56;;;;;;;12.90;5.78;;;;;;;;;;5045194;28;20025;-79
2022/02/27 13:15:22;;;;;;;12.35;6.15;;;;;;;;;;5052725;28;20161;-79
2022/02/27 13:17:47;;;;;;;16.20;8.90;;;;;;;;;;5053069;28;20385;-78
2022/02/27 13:20:15;;;;;;;9.80;5.05;;;;;;;;;;5047401;28;20056;-79
2022/02/27 13:22:41;;;;;;;12.63;6.03;;;;;;;;;;5053511;28;20089;-78
2022/02/27 13:25:08;;;;;;;11.30;5.82;;;;;;;;;;5051494;28;20021;-79
2022/02/27 13:27:34;;;;;;;12.50;5.78;;;;;;;;;;5045063;28;20017;-80
2022/02/27 13:30:04;;;;;;;10.43;4.65;;;;;;;;;;5043201;28;20508;-79
2022/02/27 13:32:31;;;;;;;8.15;4.60;;;;;;;;;;5034079;28;20029;-79
2022/02/27 13:34:58;;;;;;;8.45;4.32;;;;;;;;;;5032714;28;20014;-79
2022/02/27 13:37:27;;;;;;;10.38;4.78;;;;;;;;;;5034835;28;20018;-79
2022/02/27 13:39:53;;;;;;;9.63;5.30;;;;;;;;;;5031359;28;20021;-79
2022/02/27 13:42:20;;;;;;;9.52;4.90;;;;;;;;;;5032416;28;20110;-79
2022/02/27 13:44:45;;;;;;;10.38;4.78;;;;;;;;;;5032787;28;20024;-79
2022/02/27 13:47:10;;;;;;;9.47;5.20;;;;;;;;;;5032677;28;20033;-79
2022/02/27 13:49:35;;;;;;;8.85;4.22;;;;;;;;;;5032489;28;20722;-79
2022/02/27 13:52:04;;;;;;;12.23;6.17;;;;;;;;;;5031838;28;20436;-80
2022/02/27 13:54:29;;;;;;;8.55;4.55;;;;;;;;;;5030840;28;20263;-79
2022/02/27 13:56:58;;;;;;;11.20;5.93;;;;;;;;;;5032402;28;20107;-80
2022/02/27 13:59:23;;;;;;;11.23;5.53;;;;;;;;;;5032313;28;20028;-79
2022/02/27 14:01:56;;;;;;;14.37;6.17;;;;;;;;;;5031847;28;20335;-79
2022/02/27 14:04:22;;;;;;;8.15;4.97;;;;;;;;;;5032380;28;20280;-79
2022/02/27 14:06:49;;;;;;;8.70;5.05;;;;;;;;;;5030893;28;20093;-78
2022/02/27 14:09:15;;;;;;;8.50;5.15;;;;;;;;;;5030954;28;20018;-79
2022/02/27 14:11:41;;;;;;;9.93;4.88;;;;;;;;;;5030576;28;20075;-81
2022/02/27 14:14:07;;;;;;;9.80;4.78;;;;;;;;;;5032010;28;20013;-79
2022/02/27 14:16:33;;;;;;;8.20;4.65;;;;;;;;;;5030878;28;20021;-81
2022/02/27 14:18:59;;;;;;;8.75;4.82;;;;;;;;;;5032129;28;20417;-78
2022/02/27 14:21:30;;;;;;;9.35;4.20;;;;;;;;;;5030299;28;20103;-79
2022/02/27 14:23:56;;;;;;;11.30;5.65;;;;;;;;;;5031660;28;20507;-80